sensor_id;sensor_type;location;lat;lon;timestamp;temperature;humidity
6536;DHT22;34330;52.08032700;5.40923460;2022-10-04T00:02:19;16.60;85.00
6536;DHT22;34330;52.08032700;5.40923460;2022-10-04T00:04:53;16.60;84.80
6536;DHT22;34330;52.08032700;5.40923460;2022-10-04T00:07:27;16.60;85.00
6536;DHT22;34330;52.08032700;5.40923460;2022-10-04T00:09:59;16.50;84.90
6536;DHT22;34330;52.08032700;5.40923460;2022-10-04T00:12:31;16.60;85.10
6536;DHT22;34330;52.08032700;5.40923460;2022-10-04T00:15:03;16.50;85.10
6536;DHT22;34330;52.08032700;5.40923460;2022-10-04T00:17:33;16.50;85.10
6536;DHT22;34330;52.08032700;5.40923460;2022-10-04T00:20:03;16.50;85.10
6536;DHT22;34330;52.08032700;5.40923460;2022-10-04T00:25:20;16.50;85.30
6536;DHT22;34330;52.08032700;5.40923460;2022-10-04T00:28:28;16.50;85.30
6536;DHT22;34330;52.08032700;5.40923460;2022-10-04T00:31:17;16.50;85.40
6536;DHT22;34330;52.08032700;5.40923460;2022-10-04T00:33:48;16.40;85.30
6536;DHT22;34330;52.08032700;5.40923460;2022-10-04T00:36:46;16.40;85.40
6536;DHT22;34330;52.08032700;5.40923460;2022-10-04T00:42:31;16.40;85.40
6536;DHT22;34330;52.08032700;5.40923460;2022-10-04T00:45:05;16.40;85.40
6536;DHT22;34330;52.08032700;5.40923460;2022-10-04T00:47:38;16.50;85.60
6536;DHT22;34330;52.08032700;5.40923460;2022-10-04T00:50:16;16.40;85.50
6536;DHT22;34330;52.08032700;5.40923460;2022-10-04T00:52:48;16.40;85.60
6536;DHT22;34330;52.08032700;5.40923460;2022-10-04T00:55:22;16.40;85.60
6536;DHT22;34330;52.08032700;5.40923460;2022-10-04T00:57:55;16.40;85.80
6536;DHT22;34330;52.08032700;5.40923460;2022-10-04T01:00:25;16.40;85.80
6536;DHT22;34330;52.08032700;5.40923460;2022-10-04T01:02:57;16.40;85.80
6536;DHT22;34330;52.08032700;5.40923460;2022-10-04T01:05:32;16.40;85.90
6536;DHT22;34330;52.08032700;5.40923460;2022-10-04T01:08:05;16.40;85.90
6536;DHT22;34330;52.08032700;5.40923460;2022-10-04T01:10:39;16.40;85.90
6536;DHT22;34330;52.08032700;5.40923460;2022-10-04T01:13:12;16.40;85.90
6536;DHT22;34330;52.08032700;5.40923460;2022-10-04T01:15:44;16.40;85.70
6536;DHT22;34330;52.08032700;5.40923460;2022-10-04T01:18:28;16.40;85.80
6536;DHT22;34330;52.08032700;5.40923460;2022-10-04T01:20:59;16.40;85.70
6536;DHT22;34330;52.08032700;5.40923460;2022-10-04T01:23:40;16.40;85.70
6536;DHT22;34330;52.08032700;5.40923460;2022-10-04T01:26:35;16.40;85.70
6536;DHT22;34330;52.08032700;5.40923460;2022-10-04T01:29:10;16.30;85.50
6536;DHT22;34330;52.08032700;5.40923460;2022-10-04T01:31:40;16.30;85.40
6536;DHT22;34330;52.08032700;5.40923460;2022-10-04T01:34:11;16.30;85.40
6536;DHT22;34330;52.08032700;5.40923460;2022-10-04T01:39:09;16.30;85.40
6536;DHT22;34330;52.08032700;5.40923460;2022-10-04T01:41:43;16.30;85.40
6536;DHT22;34330;52.08032700;5.40923460;2022-10-04T01:44:23;16.30;85.40
6536;DHT22;34330;52.08032700;5.40923460;2022-10-04T01:46:55;16.30;85.40
6536;DHT22;34330;52.08032700;5.40923460;2022-10-04T01:49:28;16.20;85.40
6536;DHT22;34330;52.08032700;5.40923460;2022-10-04T01:52:01;16.00;85.30
6536;DHT22;34330;52.08032700;5.40923460;2022-10-04T01:54:34;16.20;85.50
6536;DHT22;34330;52.08032700;5.40923460;2022-10-04T01:57:09;16.20;85.50
6536;DHT22;34330;52.08032700;5.40923460;2022-10-04T01:59:44;16.10;85.20
6536;DHT22;34330;52.08032700;5.40923460;2022-10-04T02:02:20;16.10;85.30
6536;DHT22;34330;52.08032700;5.40923460;2022-10-04T02:04:52;16.10;85.20
6536;DHT22;34330;52.08032700;5.40923460;2022-10-04T02:07:22;16.10;85.10
6536;DHT22;34330;52.08032700;5.40923460;2022-10-04T02:09:56;16.10;85.10
6536;DHT22;34330;52.08032700;5.40923460;2022-10-04T02:12:27;16.00;85.00
6536;DHT22;34330;52.08032700;5.40923460;2022-10-04T02:14:59;16.00;85.00
6536;DHT22;34330;52.08032700;5.40923460;2022-10-04T02:17:30;15.90;84.80
6536;DHT22;34330;52.08032700;5.40923460;2022-10-04T02:19:59;15.90;84.80
6536;DHT22;34330;52.08032700;5.40923460;2022-10-04T02:24:58;15.90;84.90
6536;DHT22;34330;52.08032700;5.40923460;2022-10-04T02:27:28;15.90;85.00
6536;DHT22;34330;52.08032700;5.40923460;2022-10-04T02:30:00;15.80;84.80
6536;DHT22;34330;52.08032700;5.40923460;2022-10-04T02:32:30;15.80;84.80
6536;DHT22;34330;52.08032700;5.40923460;2022-10-04T02:37:53;15.70;84.80
6536;DHT22;34330;52.08032700;5.40923460;2022-10-04T02:40:27;15.70;84.80
6536;DHT22;34330;52.08032700;5.40923460;2022-10-04T02:42:59;15.60;84.80
6536;DHT22;34330;52.08032700;5.40923460;2022-10-04T02:45:38;15.60;84.80
6536;DHT22;34330;52.08032700;5.40923460;2022-10-04T02:48:27;15.60;84.80
6536;DHT22;34330;52.08032700;5.40923460;2022-10-04T02:51:04;15.50;84.70
6536;DHT22;34330;52.08032700;5.40923460;2022-10-04T02:53:43;15.50;84.80
6536;DHT22;34330;52.08032700;5.40923460;2022-10-04T02:56:14;15.50;84.80
6536;DHT22;34330;52.08032700;5.40923460;2022-10-04T03:01:22;15.40;84.90
6536;DHT22;34330;52.08032700;5.40923460;2022-10-04T03:03:53;15.40;85.00
6536;DHT22;34330;52.08032700;5.40923460;2022-10-04T03:06:22;15.40;85.00
6536;DHT22;34330;52.08032700;5.40923460;2022-10-04T03:08:57;15.40;85.00
6536;DHT22;34330;52.08032700;5.40923460;2022-10-04T03:11:29;15.30;84.90
6536;DHT22;34330;52.08032700;5.40923460;2022-10-04T03:13:59;15.30;85.00
6536;DHT22;34330;52.08032700;5.40923460;2022-10-04T03:16:33;15.20;85.00
6536;DHT22;34330;52.08032700;5.40923460;2022-10-04T03:19:02;15.20;85.00
6536;DHT22;34330;52.08032700;5.40923460;2022-10-04T03:21:31;15.20;84.90
6536;DHT22;34330;52.08032700;5.40923460;2022-10-04T03:24:00;15.10;84.90
6536;DHT22;34330;52.08032700;5.40923460;2022-10-04T03:26:35;15.10;85.00
6536;DHT22;34330;52.08032700;5.40923460;2022-10-04T03:29:05;15.10;85.00
6536;DHT22;34330;52.08032700;5.40923460;2022-10-04T03:31:39;15.10;85.10
6536;DHT22;34330;52.08032700;5.40923460;2022-10-04T03:34:12;15.10;85.00
6536;DHT22;34330;52.08032700;5.40923460;2022-10-04T03:39:10;15.00;84.80
6536;DHT22;34330;52.08032700;5.40923460;2022-10-04T03:41:40;15.00;85.00
6536;DHT22;34330;52.08032700;5.40923460;2022-10-04T03:44:14;14.80;84.50
6536;DHT22;34330;52.08032700;5.40923460;2022-10-04T03:46:44;14.90;85.00
6536;DHT22;34330;52.08032700;5.40923460;2022-10-04T03:49:16;14.90;85.00
6536;DHT22;34330;52.08032700;5.40923460;2022-10-04T03:51:48;14.90;84.90
6536;DHT22;34330;52.08032700;5.40923460;2022-10-04T03:54:22;14.90;85.00
6536;DHT22;34330;52.08032700;5.40923460;2022-10-04T03:56:56;14.90;84.90
6536;DHT22;34330;52.08032700;5.40923460;2022-10-04T03:59:25;14.80;84.70
6536;DHT22;34330;52.08032700;5.40923460;2022-10-04T04:02:04;14.80;84.70
6536;DHT22;34330;52.08032700;5.40923460;2022-10-04T04:04:40;14.80;84.70
6536;DHT22;34330;52.08032700;5.40923460;2022-10-04T04:07:11;14.70;84.60
6536;DHT22;34330;52.08032700;5.40923460;2022-10-04T04:09:43;14.70;84.60
6536;DHT22;34330;52.08032700;5.40923460;2022-10-04T04:12:17;14.70;84.70
6536;DHT22;34330;52.08032700;5.40923460;2022-10-04T04:14:49;14.60;84.60
6536;DHT22;34330;52.08032700;5.40923460;2022-10-04T04:17:36;14.70;84.80
6536;DHT22;34330;52.08032700;5.40923460;2022-10-04T04:20:12;14.60;84.60
6536;DHT22;34330;52.08032700;5.40923460;2022-10-04T04:22:44;14.60;84.70
6536;DHT22;34330;52.08032700;5.40923460;2022-10-04T04:27:45;14.50;84.70
6536;DHT22;34330;52.08032700;5.40923460;2022-10-04T04:30:16;14.50;84.50
6536;DHT22;34330;52.08032700;5.40923460;2022-10-04T04:32:48;14.50;84.60
6536;DHT22;34330;52.08032700;5.40923460;2022-10-04T04:35:23;14.40;84.50
6536;DHT22;34330;52.08032700;5.40923460;2022-10-04T04:38:03;14.40;84.50
6536;DHT22;34330;52.08032700;5.40923460;2022-10-04T04:43:02;14.30;84.60
6536;DHT22;34330;52.08032700;5.40923460;2022-10-04T04:45:31;14.30;84.60
6536;DHT22;34330;52.08032700;5.40923460;2022-10-04T04:50:32;14.30;84.80
6536;DHT22;34330;52.08032700;5.40923460;2022-10-04T04:53:05;14.30;84.80
6536;DHT22;34330;52.08032700;5.40923460;2022-10-04T04:55:38;14.20;84.70
6536;DHT22;34330;52.08032700;5.40923460;2022-10-04T04:58:30;14.20;85.00
6536;DHT22;34330;52.08032700;5.40923460;2022-10-04T05:01:02;14.20;85.10
6536;DHT22;34330;52.08032700;5.40923460;2022-10-04T05:08:32;14.10;85.40
6536;DHT22;34330;52.08032700;5.40923460;2022-10-04T05:11:12;14.10;85.50
6536;DHT22;34330;52.08032700;5.40923460;2022-10-04T05:13:46;14.10;85.50
6536;DHT22;34330;52.08032700;5.40923460;2022-10-04T05:16:19;14.10;85.50
6536;DHT22;34330;52.08032700;5.40923460;2022-10-04T05:18:54;14.10;85.60
6536;DHT22;34330;52.08032700;5.40923460;2022-10-04T05:21:26;14.10;85.70
6536;DHT22;34330;52.08032700;5.40923460;2022-10-04T05:23:55;14.10;85.50
6536;DHT22;34330;52.08032700;5.40923460;2022-10-04T05:26:25;14.00;85.70
6536;DHT22;34330;52.08032700;5.40923460;2022-10-04T05:28:59;14.00;85.90
6536;DHT22;34330;52.08032700;5.40923460;2022-10-04T05:31:37;14.00;86.00
6536;DHT22;34330;52.08032700;5.40923460;2022-10-04T05:34:18;14.00;86.00
6536;DHT22;34330;52.08032700;5.40923460;2022-10-04T05:40:03;14.00;86.10
6536;DHT22;34330;52.08032700;5.40923460;2022-10-04T05:42:36;13.90;86.10
6536;DHT22;34330;52.08032700;5.40923460;2022-10-04T05:45:15;14.00;86.30
6536;DHT22;34330;52.08032700;5.40923460;2022-10-04T05:47:45;14.00;86.30
6536;DHT22;34330;52.08032700;5.40923460;2022-10-04T05:50:16;13.90;86.50
6536;DHT22;34330;52.08032700;5.40923460;2022-10-04T05:52:48;13.90;86.60
6536;DHT22;34330;52.08032700;5.40923460;2022-10-04T05:55:22;13.90;86.70
6536;DHT22;34330;52.08032700;5.40923460;2022-10-04T06:01:03;12.40;85.50
6536;DHT22;34330;52.08032700;5.40923460;2022-10-04T06:03:49;13.90;86.90
6536;DHT22;34330;52.08032700;5.40923460;2022-10-04T06:06:23;13.90;87.20
6536;DHT22;34330;52.08032700;5.40923460;2022-10-04T06:09:08;13.90;87.30
6536;DHT22;34330;52.08032700;5.40923460;2022-10-04T06:11:43;14.00;87.30
6536;DHT22;34330;52.08032700;5.40923460;2022-10-04T06:14:30;14.00;87.50
6536;DHT22;34330;52.08032700;5.40923460;2022-10-04T06:20:19;14.00;87.50
6536;DHT22;34330;52.08032700;5.40923460;2022-10-04T06:22:55;14.00;87.50
6536;DHT22;34330;52.08032700;5.40923460;2022-10-04T06:25:27;14.00;87.50
6536;DHT22;34330;52.08032700;5.40923460;2022-10-04T06:33:54;14.00;87.50
6536;DHT22;34330;52.08032700;5.40923460;2022-10-04T06:39:50;14.00;87.50
6536;DHT22;34330;52.08032700;5.40923460;2022-10-04T06:42:46;14.00;87.50
6536;DHT22;34330;52.08032700;5.40923460;2022-10-04T06:45:29;14.00;87.50
6536;DHT22;34330;52.08032700;5.40923460;2022-10-04T06:48:24;14.00;87.60
6536;DHT22;34330;52.08032700;5.40923460;2022-10-04T06:51:00;14.00;87.70
6536;DHT22;34330;52.08032700;5.40923460;2022-10-04T06:53:45;14.00;87.90
6536;DHT22;34330;52.08032700;5.40923460;2022-10-04T06:56:43;14.00;88.20
6536;DHT22;34330;52.08032700;5.40923460;2022-10-04T06:59:25;14.10;88.50
6536;DHT22;34330;52.08032700;5.40923460;2022-10-04T07:02:04;14.10;88.60
6536;DHT22;34330;52.08032700;5.40923460;2022-10-04T07:04:36;14.20;88.90
6536;DHT22;34330;52.08032700;5.40923460;2022-10-04T07:07:31;14.20;89.00
6536;DHT22;34330;52.08032700;5.40923460;2022-10-04T07:10:22;14.20;89.20
6536;DHT22;34330;52.08032700;5.40923460;2022-10-04T07:13:05;14.30;89.40
6536;DHT22;34330;52.08032700;5.40923460;2022-10-04T07:15:44;14.30;89.40
6536;DHT22;34330;52.08032700;5.40923460;2022-10-04T07:18:17;14.40;89.40
6536;DHT22;34330;52.08032700;5.40923460;2022-10-04T07:20:48;14.40;89.30
6536;DHT22;34330;52.08032700;5.40923460;2022-10-04T07:23:24;14.50;89.50
6536;DHT22;34330;52.08032700;5.40923460;2022-10-04T07:25:59;14.50;89.40
6536;DHT22;34330;52.08032700;5.40923460;2022-10-04T07:28:31;14.60;89.60
6536;DHT22;34330;52.08032700;5.40923460;2022-10-04T07:31:22;14.60;89.50
6536;DHT22;34330;52.08032700;5.40923460;2022-10-04T07:33:53;14.60;89.50
6536;DHT22;34330;52.08032700;5.40923460;2022-10-04T07:36:27;14.60;89.60
6536;DHT22;34330;52.08032700;5.40923460;2022-10-04T07:39:03;14.70;89.40
6536;DHT22;34330;52.08032700;5.40923460;2022-10-04T07:44:05;14.90;89.40
6536;DHT22;34330;52.08032700;5.40923460;2022-10-04T07:46:48;14.90;89.60
6536;DHT22;34330;52.08032700;5.40923460;2022-10-04T07:49:20;14.90;89.80
6536;DHT22;34330;52.08032700;5.40923460;2022-10-04T07:52:01;15.00;90.00
6536;DHT22;34330;52.08032700;5.40923460;2022-10-04T07:54:37;15.10;90.00
6536;DHT22;34330;52.08032700;5.40923460;2022-10-04T07:57:13;15.20;89.90
6536;DHT22;34330;52.08032700;5.40923460;2022-10-04T07:59:55;15.30;90.00
6536;DHT22;34330;52.08032700;5.40923460;2022-10-04T08:02:36;15.40;90.00
6536;DHT22;34330;52.08032700;5.40923460;2022-10-04T08:05:19;15.50;89.90
6536;DHT22;34330;52.08032700;5.40923460;2022-10-04T08:08:06;15.50;89.70
6536;DHT22;34330;52.08032700;5.40923460;2022-10-04T08:10:52;15.60;89.40
6536;DHT22;34330;52.08032700;5.40923460;2022-10-04T08:13:30;15.70;89.30
6536;DHT22;34330;52.08032700;5.40923460;2022-10-04T08:16:03;15.80;89.30
6536;DHT22;34330;52.08032700;5.40923460;2022-10-04T08:18:44;15.90;89.30
6536;DHT22;34330;52.08032700;5.40923460;2022-10-04T08:21:17;15.90;89.20
6536;DHT22;34330;52.08032700;5.40923460;2022-10-04T08:24:02;16.00;89.20
6536;DHT22;34330;52.08032700;5.40923460;2022-10-04T08:26:58;16.00;88.90
6536;DHT22;34330;52.08032700;5.40923460;2022-10-04T08:29:49;16.20;88.70
6536;DHT22;34330;52.08032700;5.40923460;2022-10-04T08:32:28;16.20;88.50
6536;DHT22;34330;52.08032700;5.40923460;2022-10-04T08:35:17;16.30;88.20
6536;DHT22;34330;52.08032700;5.40923460;2022-10-04T08:38:00;16.40;88.10
6536;DHT22;34330;52.08032700;5.40923460;2022-10-04T08:44:24;16.50;88.10
6536;DHT22;34330;52.08032700;5.40923460;2022-10-04T08:53:45;16.70;87.60
6536;DHT22;34330;52.08032700;5.40923460;2022-10-04T08:56:35;16.80;87.70
6536;DHT22;34330;52.08032700;5.40923460;2022-10-04T08:59:26;16.80;87.50
6536;DHT22;34330;52.08032700;5.40923460;2022-10-04T09:05:24;17.00;87.00
6536;DHT22;34330;52.08032700;5.40923460;2022-10-04T09:08:20;17.00;86.60
6536;DHT22;34330;52.08032700;5.40923460;2022-10-04T09:11:07;17.10;86.60
6536;DHT22;34330;52.08032700;5.40923460;2022-10-04T09:13:52;17.20;86.20
6536;DHT22;34330;52.08032700;5.40923460;2022-10-04T09:16:30;17.20;86.10
6536;DHT22;34330;52.08032700;5.40923460;2022-10-04T09:19:20;17.20;86.10
6536;DHT22;34330;52.08032700;5.40923460;2022-10-04T09:22:06;17.30;86.10
6536;DHT22;34330;52.08032700;5.40923460;2022-10-04T09:25:04;17.40;85.80
6536;DHT22;34330;52.08032700;5.40923460;2022-10-04T09:27:51;17.40;85.80
6536;DHT22;34330;52.08032700;5.40923460;2022-10-04T09:30:27;17.50;85.50
6536;DHT22;34330;52.08032700;5.40923460;2022-10-04T09:33:22;17.50;85.30
6536;DHT22;34330;52.08032700;5.40923460;2022-10-04T09:39:26;17.70;85.40
6536;DHT22;34330;52.08032700;5.40923460;2022-10-04T09:45:29;17.80;85.00
6536;DHT22;34330;52.08032700;5.40923460;2022-10-04T09:54:29;17.90;84.60
6536;DHT22;34330;52.08032700;5.40923460;2022-10-04T09:57:24;18.00;84.60
6536;DHT22;34330;52.08032700;5.40923460;2022-10-04T10:00:11;18.00;84.20
6536;DHT22;34330;52.08032700;5.40923460;2022-10-04T10:06:12;18.10;83.90
6536;DHT22;34330;52.08032700;5.40923460;2022-10-04T10:08:52;18.10;83.70
6536;DHT22;34330;52.08032700;5.40923460;2022-10-04T10:11:33;18.10;83.50
6536;DHT22;34330;52.08032700;5.40923460;2022-10-04T10:14:42;18.10;83.40
6536;DHT22;34330;52.08032700;5.40923460;2022-10-04T10:17:18;18.10;83.30
6536;DHT22;34330;52.08032700;5.40923460;2022-10-04T10:20:08;18.20;83.40
6536;DHT22;34330;52.08032700;5.40923460;2022-10-04T10:32:45;18.30;83.60
6536;DHT22;34330;52.08032700;5.40923460;2022-10-04T10:35:27;18.30;84.00
6536;DHT22;34330;52.08032700;5.40923460;2022-10-04T10:38:14;19.30;84.70
6536;DHT22;34330;52.08032700;5.40923460;2022-10-04T10:40:56;18.50;83.50
6536;DHT22;34330;52.08032700;5.40923460;2022-10-04T10:43:37;18.60;83.70
6536;DHT22;34330;52.08032700;5.40923460;2022-10-04T10:46:22;18.70;83.30
6536;DHT22;34330;52.08032700;5.40923460;2022-10-04T10:49:12;18.80;82.80
6536;DHT22;34330;52.08032700;5.40923460;2022-10-04T10:52:15;18.90;82.50
6536;DHT22;34330;52.08032700;5.40923460;2022-10-04T10:58:28;19.00;81.70
6536;DHT22;34330;52.08032700;5.40923460;2022-10-04T11:01:11;19.10;81.30
6536;DHT22;34330;52.08032700;5.40923460;2022-10-04T11:04:12;19.10;81.60
6536;DHT22;34330;52.08032700;5.40923460;2022-10-04T11:07:02;19.10;81.00
6536;DHT22;34330;52.08032700;5.40923460;2022-10-04T11:09:50;19.30;80.80
6536;DHT22;34330;52.08032700;5.40923460;2022-10-04T11:15:42;19.30;80.60
6536;DHT22;34330;52.08032700;5.40923460;2022-10-04T11:18:44;19.50;80.80
6536;DHT22;34330;52.08032700;5.40923460;2022-10-04T11:27:33;19.70;79.50
6536;DHT22;34330;52.08032700;5.40923460;2022-10-04T11:30:19;19.80;78.10
6536;DHT22;34330;52.08032700;5.40923460;2022-10-04T11:33:15;19.90;79.00
6536;DHT22;34330;52.08032700;5.40923460;2022-10-04T11:36:17;19.90;78.60
6536;DHT22;34330;52.08032700;5.40923460;2022-10-04T11:39:01;20.00;78.60
6536;DHT22;34330;52.08032700;5.40923460;2022-10-04T11:41:44;20.10;78.10
6536;DHT22;34330;52.08032700;5.40923460;2022-10-04T11:47:21;20.20;78.30
6536;DHT22;34330;52.08032700;5.40923460;2022-10-04T11:50:06;20.30;78.50
6536;DHT22;34330;52.08032700;5.40923460;2022-10-04T11:53:22;20.40;78.20
6536;DHT22;34330;52.08032700;5.40923460;2022-10-04T11:56:20;20.40;77.90
6536;DHT22;34330;52.08032700;5.40923460;2022-10-04T12:02:21;20.50;77.70
6536;DHT22;34330;52.08032700;5.40923460;2022-10-04T12:08:00;20.70;77.80
6536;DHT22;34330;52.08032700;5.40923460;2022-10-04T12:10:35;20.70;77.60
6536;DHT22;34330;52.08032700;5.40923460;2022-10-04T12:13:26;20.70;76.90
6536;DHT22;34330;52.08032700;5.40923460;2022-10-04T12:16:14;20.70;76.40
6536;DHT22;34330;52.08032700;5.40923460;2022-10-04T12:19:17;20.80;75.60
6536;DHT22;34330;52.08032700;5.40923460;2022-10-04T12:21:59;20.80;75.10
6536;DHT22;34330;52.08032700;5.40923460;2022-10-04T12:25:00;20.90;75.40
6536;DHT22;34330;52.08032700;5.40923460;2022-10-04T12:28:00;20.90;75.70
6536;DHT22;34330;52.08032700;5.40923460;2022-10-04T12:30:49;20.90;74.80
6536;DHT22;34330;52.08032700;5.40923460;2022-10-04T12:33:28;21.00;75.50
6536;DHT22;34330;52.08032700;5.40923460;2022-10-04T12:36:10;21.00;75.70
6536;DHT22;34330;52.08032700;5.40923460;2022-10-04T12:38:52;21.00;76.40
6536;DHT22;34330;52.08032700;5.40923460;2022-10-04T12:41:30;21.00;76.00
6536;DHT22;34330;52.08032700;5.40923460;2022-10-04T12:44:15;22.50;76.60
6536;DHT22;34330;52.08032700;5.40923460;2022-10-04T12:46:56;21.20;74.60
6536;DHT22;34330;52.08032700;5.40923460;2022-10-04T12:49:36;21.20;75.60
6536;DHT22;34330;52.08032700;5.40923460;2022-10-04T12:52:15;21.30;73.20
6536;DHT22;34330;52.08032700;5.40923460;2022-10-04T12:54:44;21.30;73.00
6536;DHT22;34330;52.08032700;5.40923460;2022-10-04T12:57:26;21.40;73.50
6536;DHT22;34330;52.08032700;5.40923460;2022-10-04T13:00:04;21.40;71.30
6536;DHT22;34330;52.08032700;5.40923460;2022-10-04T13:02:52;18.80;68.30
6536;DHT22;34330;52.08032700;5.40923460;2022-10-04T13:05:30;21.50;70.70
6536;DHT22;34330;52.08032700;5.40923460;2022-10-04T13:08:10;21.50;70.40
6536;DHT22;34330;52.08032700;5.40923460;2022-10-04T13:10:51;21.40;70.50
6536;DHT22;34330;52.08032700;5.40923460;2022-10-04T13:13:41;21.40;70.70
6536;DHT22;34330;52.08032700;5.40923460;2022-10-04T13:16:19;21.50;70.90
6536;DHT22;34330;52.08032700;5.40923460;2022-10-04T13:19:18;21.50;72.30
6536;DHT22;34330;52.08032700;5.40923460;2022-10-04T13:22:04;21.60;71.90
6536;DHT22;34330;52.08032700;5.40923460;2022-10-04T13:24:47;21.60;72.10
6536;DHT22;34330;52.08032700;5.40923460;2022-10-04T13:27:30;21.70;71.70
6536;DHT22;34330;52.08032700;5.40923460;2022-10-04T13:30:05;21.70;72.10
6536;DHT22;34330;52.08032700;5.40923460;2022-10-04T13:32:41;21.80;71.40
6536;DHT22;34330;52.08032700;5.40923460;2022-10-04T13:35:16;21.80;70.90
6536;DHT22;34330;52.08032700;5.40923460;2022-10-04T13:38:04;21.90;70.10
6536;DHT22;34330;52.08032700;5.40923460;2022-10-04T13:40:54;22.10;69.90
6536;DHT22;34330;52.08032700;5.40923460;2022-10-04T13:46:40;22.00;69.10
6536;DHT22;34330;52.08032700;5.40923460;2022-10-04T13:49:22;22.00;69.80
6536;DHT22;34330;52.08032700;5.40923460;2022-10-04T13:52:10;22.00;69.70
6536;DHT22;34330;52.08032700;5.40923460;2022-10-04T13:55:11;23.00;71.10
6536;DHT22;34330;52.08032700;5.40923460;2022-10-04T13:58:14;24.50;72.20
6536;DHT22;34330;52.08032700;5.40923460;2022-10-04T14:03:56;22.00;69.80
6536;DHT22;34330;52.08032700;5.40923460;2022-10-04T14:06:54;22.00;69.90
6536;DHT22;34330;52.08032700;5.40923460;2022-10-04T14:12:58;22.00;69.60
6536;DHT22;34330;52.08032700;5.40923460;2022-10-04T14:15:49;22.00;69.80
6536;DHT22;34330;52.08032700;5.40923460;2022-10-04T14:25:12;22.00;70.10
6536;DHT22;34330;52.08032700;5.40923460;2022-10-04T14:28:13;22.00;70.80
6536;DHT22;34330;52.08032700;5.40923460;2022-10-04T14:30:56;22.00;71.00
6536;DHT22;34330;52.08032700;5.40923460;2022-10-04T14:36:46;22.10;70.20
6536;DHT22;34330;52.08032700;5.40923460;2022-10-04T14:45:25;22.20;70.70
6536;DHT22;34330;52.08032700;5.40923460;2022-10-04T14:48:26;22.20;71.60
6536;DHT22;34330;52.08032700;5.40923460;2022-10-04T14:51:19;22.30;71.40
6536;DHT22;34330;52.08032700;5.40923460;2022-10-04T14:53:57;22.30;69.70
6536;DHT22;34330;52.08032700;5.40923460;2022-10-04T14:56:38;22.30;70.20
6536;DHT22;34330;52.08032700;5.40923460;2022-10-04T14:59:24;22.30;70.40
6536;DHT22;34330;52.08032700;5.40923460;2022-10-04T15:02:36;22.30;70.50
6536;DHT22;34330;52.08032700;5.40923460;2022-10-04T15:05:31;22.30;71.20
6536;DHT22;34330;52.08032700;5.40923460;2022-10-04T15:08:24;22.30;70.50
6536;DHT22;34330;52.08032700;5.40923460;2022-10-04T15:10:57;22.30;70.30
6536;DHT22;34330;52.08032700;5.40923460;2022-10-04T15:13:30;22.30;70.10
6536;DHT22;34330;52.08032700;5.40923460;2022-10-04T15:16:09;22.20;69.20
6536;DHT22;34330;52.08032700;5.40923460;2022-10-04T15:18:49;22.20;69.60
6536;DHT22;34330;52.08032700;5.40923460;2022-10-04T15:21:40;23.50;71.20
6536;DHT22;34330;52.08032700;5.40923460;2022-10-04T15:24:29;22.20;69.80
6536;DHT22;34330;52.08032700;5.40923460;2022-10-04T15:27:21;24.40;71.90
6536;DHT22;34330;52.08032700;5.40923460;2022-10-04T15:30:00;22.10;69.90
6536;DHT22;34330;52.08032700;5.40923460;2022-10-04T15:32:35;22.10;70.30
6536;DHT22;34330;52.08032700;5.40923460;2022-10-04T15:35:19;22.10;70.30
6536;DHT22;34330;52.08032700;5.40923460;2022-10-04T15:37:55;22.00;70.50
6536;DHT22;34330;52.08032700;5.40923460;2022-10-04T15:40:32;22.00;70.60
6536;DHT22;34330;52.08032700;5.40923460;2022-10-04T15:49:04;21.90;71.30
6536;DHT22;34330;52.08032700;5.40923460;2022-10-04T15:51:47;21.80;71.30
6536;DHT22;34330;52.08032700;5.40923460;2022-10-04T15:54:40;21.80;71.30
6536;DHT22;34330;52.08032700;5.40923460;2022-10-04T15:57:21;21.70;71.30
6536;DHT22;34330;52.08032700;5.40923460;2022-10-04T15:59:55;23.20;73.20
6536;DHT22;34330;52.08032700;5.40923460;2022-10-04T16:02:45;21.70;71.80
6536;DHT22;34330;52.08032700;5.40923460;2022-10-04T16:05:28;21.70;71.80
6536;DHT22;34330;52.08032700;5.40923460;2022-10-04T16:08:30;21.60;72.10
6536;DHT22;34330;52.08032700;5.40923460;2022-10-04T16:11:32;21.60;72.30
6536;DHT22;34330;52.08032700;5.40923460;2022-10-04T16:17:08;21.60;72.50
6536;DHT22;34330;52.08032700;5.40923460;2022-10-04T16:19:51;21.60;72.60
6536;DHT22;34330;52.08032700;5.40923460;2022-10-04T16:22:27;21.60;73.00
6536;DHT22;34330;52.08032700;5.40923460;2022-10-04T16:24:57;21.50;72.90
6536;DHT22;34330;52.08032700;5.40923460;2022-10-04T16:27:41;21.50;73.10
6536;DHT22;34330;52.08032700;5.40923460;2022-10-04T16:30:17;23.00;74.70
6536;DHT22;34330;52.08032700;5.40923460;2022-10-04T16:33:28;21.50;73.00
6536;DHT22;34330;52.08032700;5.40923460;2022-10-04T16:36:07;21.50;73.00
6536;DHT22;34330;52.08032700;5.40923460;2022-10-04T16:38:44;21.40;73.00
6536;DHT22;34330;52.08032700;5.40923460;2022-10-04T16:41:39;21.40;73.20
6536;DHT22;34330;52.08032700;5.40923460;2022-10-04T16:44:23;21.40;73.30
6536;DHT22;34330;52.08032700;5.40923460;2022-10-04T16:46:57;21.30;73.40
6536;DHT22;34330;52.08032700;5.40923460;2022-10-04T16:49:31;21.30;73.50
6536;DHT22;34330;52.08032700;5.40923460;2022-10-04T17:04:43;21.10;73.80
6536;DHT22;34330;52.08032700;5.40923460;2022-10-04T17:07:26;21.00;74.00
6536;DHT22;34330;52.08032700;5.40923460;2022-10-04T17:10:11;21.00;74.10
6536;DHT22;34330;52.08032700;5.40923460;2022-10-04T17:12:50;21.00;74.20
6536;DHT22;34330;52.08032700;5.40923460;2022-10-04T17:15:37;20.90;74.10
6536;DHT22;34330;52.08032700;5.40923460;2022-10-04T17:18:26;20.90;74.30
6536;DHT22;34330;52.08032700;5.40923460;2022-10-04T17:20:59;20.90;74.50
6536;DHT22;34330;52.08032700;5.40923460;2022-10-04T17:23:49;20.80;74.60
6536;DHT22;34330;52.08032700;5.40923460;2022-10-04T17:26:29;20.80;75.00
6536;DHT22;34330;52.08032700;5.40923460;2022-10-04T17:29:17;22.40;76.50